sensor_id;sensor_type;location;lat;lon;timestamp;P1;durP1;ratioP1;P2;durP2;ratioP2
15708;SDS011;7954;51.914;8.420;2023-05-17T00:02:25;5.50;;;3.07;;
15708;SDS011;7954;51.914;8.420;2023-05-17T00:04:53;5.73;;;3.50;;
15708;SDS011;7954;51.914;8.420;2023-05-17T00:07:21;3.87;;;2.67;;
15708;SDS011;7954;51.914;8.420;2023-05-17T00:09:49;4.37;;;2.73;;
15708;SDS011;7954;51.914;8.420;2023-05-17T00:12:18;6.97;;;3.17;;
15708;SDS011;7954;51.914;8.420;2023-05-17T00:14:45;4.27;;;2.90;;
15708;SDS011;7954;51.914;8.420;2023-05-17T00:17:13;4.40;;;3.60;;
15708;SDS011;7954;51.914;8.420;2023-05-17T00:19:43;5.73;;;3.23;;
15708;SDS011;7954;51.914;8.420;2023-05-17T00:22:11;4.70;;;3.37;;
15708;SDS011;7954;51.914;8.420;2023-05-17T00:24:39;5.30;;;3.00;;
15708;SDS011;7954;51.914;8.420;2023-05-17T00:27:07;7.17;;;3.37;;
15708;SDS011;7954;51.914;8.420;2023-05-17T00:29:35;5.37;;;3.30;;
15708;SDS011;7954;51.914;8.420;2023-05-17T00:32:04;4.63;;;2.93;;
15708;SDS011;7954;51.914;8.420;2023-05-17T00:34:32;5.43;;;2.90;;
15708;SDS011;7954;51.914;8.420;2023-05-17T00:37:01;4.57;;;2.83;;
15708;SDS011;7954;51.914;8.420;2023-05-17T00:39:29;4.10;;;3.20;;
15708;SDS011;7954;51.914;8.420;2023-05-17T00:41:58;3.37;;;2.63;;
15708;SDS011;7954;51.914;8.420;2023-05-17T00:44:27;4.37;;;3.37;;
15708;SDS011;7954;51.914;8.420;2023-05-17T00:46:55;6.30;;;4.07;;
15708;SDS011;7954;51.914;8.420;2023-05-17T00:49:25;6.20;;;3.67;;
15708;SDS011;7954;51.914;8.420;2023-05-17T00:51:53;3.70;;;3.03;;
15708;SDS011;7954;51.914;8.420;2023-05-17T00:54:23;4.43;;;3.57;;
15708;SDS011;7954;51.914;8.420;2023-05-17T00:56:52;3.93;;;3.13;;
15708;SDS011;7954;51.914;8.420;2023-05-17T00:59:22;5.57;;;3.60;;
15708;SDS011;7954;51.914;8.420;2023-05-17T01:01:52;6.37;;;3.13;;
15708;SDS011;7954;51.914;8.420;2023-05-17T01:04:20;6.27;;;3.20;;
15708;SDS011;7954;51.914;8.420;2023-05-17T01:06:49;6.13;;;3.57;;
15708;SDS011;7954;51.914;8.420;2023-05-17T01:09:17;3.73;;;3.13;;
15708;SDS011;7954;51.914;8.420;2023-05-17T01:11:51;5.40;;;3.03;;
15708;SDS011;7954;51.914;8.420;2023-05-17T01:14:33;4.80;;;3.60;;
15708;SDS011;7954;51.914;8.420;2023-05-17T01:17:11;5.17;;;3.70;;
15708;SDS011;7954;51.914;8.420;2023-05-17T01:19:52;4.93;;;2.90;;
15708;SDS011;7954;51.914;8.420;2023-05-17T01:22:26;5.70;;;3.53;;
15708;SDS011;7954;51.914;8.420;2023-05-17T01:27:51;6.20;;;3.53;;
15708;SDS011;7954;51.914;8.420;2023-05-17T01:30:21;4.43;;;3.00;;
15708;SDS011;7954;51.914;8.420;2023-05-17T01:32:52;5.80;;;3.53;;
15708;SDS011;7954;51.914;8.420;2023-05-17T01:35:24;5.13;;;3.30;;
15708;SDS011;7954;51.914;8.420;2023-05-17T01:37:53;6.10;;;3.50;;
15708;SDS011;7954;51.914;8.420;2023-05-17T01:40:20;4.53;;;3.23;;
15708;SDS011;7954;51.914;8.420;2023-05-17T01:42:55;6.43;;;3.23;;
15708;SDS011;7954;51.914;8.420;2023-05-17T01:45:30;4.07;;;3.07;;
15708;SDS011;7954;51.914;8.420;2023-05-17T01:48:08;6.37;;;3.30;;
15708;SDS011;7954;51.914;8.420;2023-05-17T01:50:42;8.47;;;3.90;;
15708;SDS011;7954;51.914;8.420;2023-05-17T01:53:17;7.60;;;3.40;;
15708;SDS011;7954;51.914;8.420;2023-05-17T01:55:48;7.37;;;3.80;;
15708;SDS011;7954;51.914;8.420;2023-05-17T01:58:20;5.50;;;3.80;;
15708;SDS011;7954;51.914;8.420;2023-05-17T02:00:51;5.37;;;3.70;;
15708;SDS011;7954;51.914;8.420;2023-05-17T02:03:22;7.20;;;4.30;;
15708;SDS011;7954;51.914;8.420;2023-05-17T02:05:50;5.37;;;3.87;;
15708;SDS011;7954;51.914;8.420;2023-05-17T02:08:18;5.80;;;3.47;;
15708;SDS011;7954;51.914;8.420;2023-05-17T02:10:46;6.70;;;3.87;;
15708;SDS011;7954;51.914;8.420;2023-05-17T02:13:14;7.37;;;3.80;;
15708;SDS011;7954;51.914;8.420;2023-05-17T02:15:44;5.57;;;3.50;;
15708;SDS011;7954;51.914;8.420;2023-05-17T02:18:12;5.83;;;3.70;;
15708;SDS011;7954;51.914;8.420;2023-05-17T02:20:40;5.97;;;3.67;;
15708;SDS011;7954;51.914;8.420;2023-05-17T02:23:08;6.13;;;4.03;;
15708;SDS011;7954;51.914;8.420;2023-05-17T02:25:37;6.57;;;3.43;;
15708;SDS011;7954;51.914;8.420;2023-05-17T02:28:05;6.40;;;3.57;;
15708;SDS011;7954;51.914;8.420;2023-05-17T02:30:33;7.57;;;4.03;;
15708;SDS011;7954;51.914;8.420;2023-05-17T02:33:03;7.13;;;3.63;;
15708;SDS011;7954;51.914;8.420;2023-05-17T02:35:31;7.60;;;4.03;;
15708;SDS011;7954;51.914;8.420;2023-05-17T02:37:59;8.60;;;3.70;;
15708;SDS011;7954;51.914;8.420;2023-05-17T02:40:27;7.07;;;4.03;;
15708;SDS011;7954;51.914;8.420;2023-05-17T02:42:55;7.13;;;3.83;;
15708;SDS011;7954;51.914;8.420;2023-05-17T02:45:23;7.77;;;4.10;;
15708;SDS011;7954;51.914;8.420;2023-05-17T02:47:51;8.37;;;3.53;;
15708;SDS011;7954;51.914;8.420;2023-05-17T02:50:21;7.67;;;3.93;;
15708;SDS011;7954;51.914;8.420;2023-05-17T02:52:49;5.80;;;3.13;;
15708;SDS011;7954;51.914;8.420;2023-05-17T02:55:16;4.50;;;3.60;;
15708;SDS011;7954;51.914;8.420;2023-05-17T02:57:45;7.67;;;3.43;;
15708;SDS011;7954;51.914;8.420;2023-05-17T03:00:13;5.20;;;3.13;;
15708;SDS011;7954;51.914;8.420;2023-05-17T03:02:43;9.33;;;5.00;;
15708;SDS011;7954;51.914;8.420;2023-05-17T03:05:11;7.53;;;3.60;;
15708;SDS011;7954;51.914;8.420;2023-05-17T03:07:41;7.63;;;3.43;;
15708;SDS011;7954;51.914;8.420;2023-05-17T03:10:09;5.60;;;3.93;;
15708;SDS011;7954;51.914;8.420;2023-05-17T03:12:38;8.80;;;4.27;;
15708;SDS011;7954;51.914;8.420;2023-05-17T03:15:06;8.30;;;3.93;;
15708;SDS011;7954;51.914;8.420;2023-05-17T03:17:34;8.70;;;3.80;;
15708;SDS011;7954;51.914;8.420;2023-05-17T03:20:03;8.70;;;3.80;;
15708;SDS011;7954;51.914;8.420;2023-05-17T03:22:33;7.43;;;4.07;;
15708;SDS011;7954;51.914;8.420;2023-05-17T03:25:02;10.67;;;4.90;;
15708;SDS011;7954;51.914;8.420;2023-05-17T03:27:31;11.53;;;4.20;;
15708;SDS011;7954;51.914;8.420;2023-05-17T03:29:59;9.90;;;5.20;;
15708;SDS011;7954;51.914;8.420;2023-05-17T03:32:27;15.40;;;4.53;;
15708;SDS011;7954;51.914;8.420;2023-05-17T03:34:54;7.07;;;4.83;;
15708;SDS011;7954;51.914;8.420;2023-05-17T03:37:23;16.27;;;5.20;;
15708;SDS011;7954;51.914;8.420;2023-05-17T03:39:51;7.67;;;4.07;;
15708;SDS011;7954;51.914;8.420;2023-05-17T03:42:20;9.00;;;4.53;;
15708;SDS011;7954;51.914;8.420;2023-05-17T03:44:48;8.47;;;4.30;;
15708;SDS011;7954;51.914;8.420;2023-05-17T03:47:16;9.27;;;4.57;;
15708;SDS011;7954;51.914;8.420;2023-05-17T03:49:45;12.87;;;5.30;;
15708;SDS011;7954;51.914;8.420;2023-05-17T03:52:12;8.97;;;4.43;;
15708;SDS011;7954;51.914;8.420;2023-05-17T03:54:40;8.87;;;3.93;;
15708;SDS011;7954;51.914;8.420;2023-05-17T03:57:08;8.67;;;4.23;;
15708;SDS011;7954;51.914;8.420;2023-05-17T03:59:38;9.83;;;4.30;;
15708;SDS011;7954;51.914;8.420;2023-05-17T04:02:06;11.80;;;4.67;;
15708;SDS011;7954;51.914;8.420;2023-05-17T04:04:33;10.20;;;4.33;;
15708;SDS011;7954;51.914;8.420;2023-05-17T04:07:02;8.00;;;4.13;;
15708;SDS011;7954;51.914;8.420;2023-05-17T04:09:29;9.47;;;3.97;;
15708;SDS011;7954;51.914;8.420;2023-05-17T04:12:00;8.83;;;5.10;;
15708;SDS011;7954;51.914;8.420;2023-05-17T04:14:29;7.20;;;4.20;;
15708;SDS011;7954;51.914;8.420;2023-05-17T04:16:59;7.50;;;4.17;;
15708;SDS011;7954;51.914;8.420;2023-05-17T04:19:26;10.43;;;4.90;;
15708;SDS011;7954;51.914;8.420;2023-05-17T04:21:55;14.77;;;4.87;;
15708;SDS011;7954;51.914;8.420;2023-05-17T04:24:23;10.37;;;4.73;;
15708;SDS011;7954;51.914;8.420;2023-05-17T04:26:51;13.47;;;4.83;;
15708;SDS011;7954;51.914;8.420;2023-05-17T04:29:19;9.27;;;4.63;;
15708;SDS011;7954;51.914;8.420;2023-05-17T04:31:47;7.57;;;4.00;;
15708;SDS011;7954;51.914;8.420;2023-05-17T04:34:17;8.63;;;4.53;;
15708;SDS011;7954;51.914;8.420;2023-05-17T04:36:44;10.63;;;4.53;;
15708;SDS011;7954;51.914;8.420;2023-05-17T04:39:12;10.73;;;4.73;;
15708;SDS011;7954;51.914;8.420;2023-05-17T04:41:40;10.90;;;4.80;;
15708;SDS011;7954;51.914;8.420;2023-05-17T04:44:08;8.73;;;4.77;;
15708;SDS011;7954;51.914;8.420;2023-05-17T04:46:40;9.40;;;5.03;;
15708;SDS011;7954;51.914;8.420;2023-05-17T04:49:09;12.20;;;4.87;;
15708;SDS011;7954;51.914;8.420;2023-05-17T04:51:38;7.67;;;3.90;;
15708;SDS011;7954;51.914;8.420;2023-05-17T04:54:06;8.77;;;5.37;;
15708;SDS011;7954;51.914;8.420;2023-05-17T04:56:34;9.10;;;4.87;;
15708;SDS011;7954;51.914;8.420;2023-05-17T04:59:02;10.70;;;5.50;;
15708;SDS011;7954;51.914;8.420;2023-05-17T05:01:30;8.97;;;4.93;;
15708;SDS011;7954;51.914;8.420;2023-05-17T05:04:00;7.73;;;4.47;;
15708;SDS011;7954;51.914;8.420;2023-05-17T05:06:32;7.97;;;4.87;;
15708;SDS011;7954;51.914;8.420;2023-05-17T05:09:01;10.47;;;4.63;;
15708;SDS011;7954;51.914;8.420;2023-05-17T05:11:30;9.50;;;4.67;;
15708;SDS011;7954;51.914;8.420;2023-05-17T05:13:58;7.83;;;4.47;;
15708;SDS011;7954;51.914;8.420;2023-05-17T05:16:27;8.23;;;3.90;;
15708;SDS011;7954;51.914;8.420;2023-05-17T05:18:54;10.10;;;4.90;;
15708;SDS011;7954;51.914;8.420;2023-05-17T05:21:22;8.73;;;4.13;;
15708;SDS011;7954;51.914;8.420;2023-05-17T05:23:51;13.07;;;4.23;;
15708;SDS011;7954;51.914;8.420;2023-05-17T05:26:20;12.00;;;4.63;;
15708;SDS011;7954;51.914;8.420;2023-05-17T05:28:48;8.43;;;3.87;;
15708;SDS011;7954;51.914;8.420;2023-05-17T05:31:16;11.93;;;4.37;;
15708;SDS011;7954;51.914;8.420;2023-05-17T05:33:44;8.67;;;3.90;;
15708;SDS011;7954;51.914;8.420;2023-05-17T05:36:13;7.47;;;3.87;;
15708;SDS011;7954;51.914;8.420;2023-05-17T05:38:41;10.90;;;3.93;;
15708;SDS011;7954;51.914;8.420;2023-05-17T05:41:09;7.87;;;4.13;;
15708;SDS011;7954;51.914;8.420;2023-05-17T05:43:38;10.13;;;4.57;;
15708;SDS011;7954;51.914;8.420;2023-05-17T05:46:06;7.57;;;4.00;;
15708;SDS011;7954;51.914;8.420;2023-05-17T05:48:34;9.67;;;4.30;;
15708;SDS011;7954;51.914;8.420;2023-05-17T05:51:07;10.23;;;4.20;;
15708;SDS011;7954;51.914;8.420;2023-05-17T05:53:35;8.23;;;4.00;;
15708;SDS011;7954;51.914;8.420;2023-05-17T05:56:03;10.60;;;4.50;;
15708;SDS011;7954;51.914;8.420;2023-05-17T05:58:31;10.63;;;4.67;;
15708;SDS011;7954;51.914;8.420;2023-05-17T06:01:01;7.57;;;3.63;;
15708;SDS011;7954;51.914;8.420;2023-05-17T06:03:31;7.07;;;3.30;;
15708;SDS011;7954;51.914;8.420;2023-05-17T06:05:59;10.83;;;4.70;;
15708;SDS011;7954;51.914;8.420;2023-05-17T06:08:29;11.87;;;4.67;;
15708;SDS011;7954;51.914;8.420;2023-05-17T06:10:57;11.07;;;4.10;;
15708;SDS011;7954;51.914;8.420;2023-05-17T06:13:25;9.40;;;3.70;;
15708;SDS011;7954;51.914;8.420;2023-05-17T06:15:53;8.27;;;3.50;;
15708;SDS011;7954;51.914;8.420;2023-05-17T06:18:22;9.57;;;3.63;;
15708;SDS011;7954;51.914;8.420;2023-05-17T06:20:50;9.33;;;4.37;;
15708;SDS011;7954;51.914;8.420;2023-05-17T06:23:18;10.80;;;3.40;;
15708;SDS011;7954;51.914;8.420;2023-05-17T06:25:46;11.90;;;4.17;;
15708;SDS011;7954;51.914;8.420;2023-05-17T06:28:14;11.53;;;4.43;;
15708;SDS011;7954;51.914;8.420;2023-05-17T06:30:42;10.17;;;4.03;;
15708;SDS011;7954;51.914;8.420;2023-05-17T06:33:10;9.70;;;3.93;;
15708;SDS011;7954;51.914;8.420;2023-05-17T06:35:41;8.53;;;3.80;;
15708;SDS011;7954;51.914;8.420;2023-05-17T06:38:19;13.90;;;4.07;;
15708;SDS011;7954;51.914;8.420;2023-05-17T06:40:50;9.27;;;4.00;;
15708;SDS011;7954;51.914;8.420;2023-05-17T06:43:18;8.00;;;3.60;;
15708;SDS011;7954;51.914;8.420;2023-05-17T06:45:46;10.53;;;4.33;;
15708;SDS011;7954;51.914;8.420;2023-05-17T06:48:15;6.23;;;3.50;;
15708;SDS011;7954;51.914;8.420;2023-05-17T06:50:45;12.13;;;3.77;;
15708;SDS011;7954;51.914;8.420;2023-05-17T06:53:14;8.77;;;3.00;;
15708;SDS011;7954;51.914;8.420;2023-05-17T06:55:42;7.40;;;3.40;;
15708;SDS011;7954;51.914;8.420;2023-05-17T06:58:10;5.63;;;3.00;;
15708;SDS011;7954;51.914;8.420;2023-05-17T07:00:38;7.47;;;2.83;;
15708;SDS011;7954;51.914;8.420;2023-05-17T07:03:07;5.83;;;2.33;;
15708;SDS011;7954;51.914;8.420;2023-05-17T07:05:35;5.70;;;2.30;;
15708;SDS011;7954;51.914;8.420;2023-05-17T07:08:05;8.03;;;2.57;;
15708;SDS011;7954;51.914;8.420;2023-05-17T07:10:32;7.43;;;2.83;;
15708;SDS011;7954;51.914;8.420;2023-05-17T07:13:00;6.33;;;2.40;;
15708;SDS011;7954;51.914;8.420;2023-05-17T07:15:29;6.50;;;2.50;;
15708;SDS011;7954;51.914;8.420;2023-05-17T07:17:57;6.00;;;3.00;;
15708;SDS011;7954;51.914;8.420;2023-05-17T07:20:26;6.23;;;2.60;;
15708;SDS011;7954;51.914;8.420;2023-05-17T07:22:53;6.20;;;2.40;;
15708;SDS011;7954;51.914;8.420;2023-05-17T07:25:23;4.73;;;2.37;;
15708;SDS011;7954;51.914;8.420;2023-05-17T07:27:51;9.47;;;2.40;;
15708;SDS011;7954;51.914;8.420;2023-05-17T07:30:19;6.63;;;2.10;;
15708;SDS011;7954;51.914;8.420;2023-05-17T07:32:47;5.33;;;2.40;;
15708;SDS011;7954;51.914;8.420;2023-05-17T07:35:15;4.87;;;2.20;;
15708;SDS011;7954;51.914;8.420;2023-05-17T07:37:46;5.07;;;2.43;;
15708;SDS011;7954;51.914;8.420;2023-05-17T07:40:14;6.37;;;2.30;;
15708;SDS011;7954;51.914;8.420;2023-05-17T07:42:45;6.90;;;2.10;;
15708;SDS011;7954;51.914;8.420;2023-05-17T07:45:14;5.73;;;2.47;;
15708;SDS011;7954;51.914;8.420;2023-05-17T07:47:42;7.83;;;2.73;;
15708;SDS011;7954;51.914;8.420;2023-05-17T07:50:10;6.30;;;2.10;;
15708;SDS011;7954;51.914;8.420;2023-05-17T07:52:38;5.43;;;2.40;;
15708;SDS011;7954;51.914;8.420;2023-05-17T07:55:06;6.13;;;2.23;;
15708;SDS011;7954;51.914;8.420;2023-05-17T07:57:35;6.63;;;2.40;;
15708;SDS011;7954;51.914;8.420;2023-05-17T08:00:05;6.17;;;2.00;;
15708;SDS011;7954;51.914;8.420;2023-05-17T08:02:38;5.00;;;2.10;;
15708;SDS011;7954;51.914;8.420;2023-05-17T08:05:07;5.33;;;2.40;;
15708;SDS011;7954;51.914;8.420;2023-05-17T08:07:35;5.10;;;2.13;;
15708;SDS011;7954;51.914;8.420;2023-05-17T08:10:03;6.40;;;2.23;;
15708;SDS011;7954;51.914;8.420;2023-05-17T08:12:32;5.03;;;2.30;;
15708;SDS011;7954;51.914;8.420;2023-05-17T08:15:00;3.37;;;2.20;;
15708;SDS011;7954;51.914;8.420;2023-05-17T08:17:30;4.50;;;1.70;;
15708;SDS011;7954;51.914;8.420;2023-05-17T08:19:58;6.17;;;2.30;;
15708;SDS011;7954;51.914;8.420;2023-05-17T08:22:26;3.50;;;1.70;;
15708;SDS011;7954;51.914;8.420;2023-05-17T08:24:56;3.20;;;1.70;;
15708;SDS011;7954;51.914;8.420;2023-05-17T08:27:23;3.93;;;1.70;;
15708;SDS011;7954;51.914;8.420;2023-05-17T08:29:52;3.83;;;1.77;;
15708;SDS011;7954;51.914;8.420;2023-05-17T08:32:21;3.47;;;1.80;;
15708;SDS011;7954;51.914;8.420;2023-05-17T08:34:50;4.73;;;1.93;;
15708;SDS011;7954;51.914;8.420;2023-05-17T08:37:18;3.67;;;1.70;;
15708;SDS011;7954;51.914;8.420;2023-05-17T08:39:46;5.73;;;2.17;;
15708;SDS011;7954;51.914;8.420;2023-05-17T08:42:16;6.37;;;1.93;;
15708;SDS011;7954;51.914;8.420;2023-05-17T08:44:50;6.63;;;2.10;;
15708;SDS011;7954;51.914;8.420;2023-05-17T08:47:20;5.17;;;2.03;;
15708;SDS011;7954;51.914;8.420;2023-05-17T08:50:01;5.37;;;1.90;;
15708;SDS011;7954;51.914;8.420;2023-05-17T08:52:31;5.23;;;1.70;;
15708;SDS011;7954;51.914;8.420;2023-05-17T08:54:59;6.13;;;2.03;;
15708;SDS011;7954;51.914;8.420;2023-05-17T08:57:27;4.80;;;1.90;;
15708;SDS011;7954;51.914;8.420;2023-05-17T08:59:57;5.33;;;2.30;;
15708;SDS011;7954;51.914;8.420;2023-05-17T09:02:26;2.90;;;1.80;;
15708;SDS011;7954;51.914;8.420;2023-05-17T09:04:57;5.23;;;2.40;;
15708;SDS011;7954;51.914;8.420;2023-05-17T09:07:27;4.63;;;2.17;;
15708;SDS011;7954;51.914;8.420;2023-05-17T09:09:55;6.07;;;2.47;;
15708;SDS011;7954;51.914;8.420;2023-05-17T09:12:23;4.60;;;2.13;;
15708;SDS011;7954;51.914;8.420;2023-05-17T09:14:51;5.13;;;2.20;;
15708;SDS011;7954;51.914;8.420;2023-05-17T09:17:20;4.90;;;2.10;;
15708;SDS011;7954;51.914;8.420;2023-05-17T09:19:48;7.47;;;2.00;;
15708;SDS011;7954;51.914;8.420;2023-05-17T09:22:17;4.40;;;1.97;;
15708;SDS011;7954;51.914;8.420;2023-05-17T09:24:48;4.57;;;2.20;;
15708;SDS011;7954;51.914;8.420;2023-05-17T09:27:16;4.47;;;2.53;;
15708;SDS011;7954;51.914;8.420;2023-05-17T09:29:45;3.67;;;2.10;;
15708;SDS011;7954;51.914;8.420;2023-05-17T09:32:14;3.13;;;1.50;;
15708;SDS011;7954;51.914;8.420;2023-05-17T09:34:43;4.87;;;2.07;;
15708;SDS011;7954;51.914;8.420;2023-05-17T09:37:12;4.47;;;1.90;;
15708;SDS011;7954;51.914;8.420;2023-05-17T09:39:43;4.10;;;2.03;;
15708;SDS011;7954;51.914;8.420;2023-05-17T09:42:14;5.10;;;1.93;;
15708;SDS011;7954;51.914;8.420;2023-05-17T09:44:46;2.83;;;1.70;;
15708;SDS011;7954;51.914;8.420;2023-05-17T09:47:24;4.00;;;1.87;;
15708;SDS011;7954;51.914;8.420;2023-05-17T09:49:55;5.90;;;2.30;;
15708;SDS011;7954;51.914;8.420;2023-05-17T09:52:25;5.03;;;2.00;;
15708;SDS011;7954;51.914;8.420;2023-05-17T09:54:57;6.03;;;2.10;;
15708;SDS011;7954;51.914;8.420;2023-05-17T09:57:35;4.50;;;2.10;;
15708;SDS011;7954;51.914;8.420;2023-05-17T10:00:04;5.87;;;2.37;;
15708;SDS011;7954;51.914;8.420;2023-05-17T10:02:35;5.67;;;1.93;;
15708;SDS011;7954;51.914;8.420;2023-05-17T10:05:04;4.33;;;2.20;;
15708;SDS011;7954;51.914;8.420;2023-05-17T10:07:37;5.93;;;2.20;;
15708;SDS011;7954;51.914;8.420;2023-05-17T10:10:05;7.20;;;2.27;;
15708;SDS011;7954;51.914;8.420;2023-05-17T10:12:36;4.10;;;1.73;;
15708;SDS011;7954;51.914;8.420;2023-05-17T10:15:07;5.73;;;1.70;;
15708;SDS011;7954;51.914;8.420;2023-05-17T10:17:39;4.40;;;1.83;;
15708;SDS011;7954;51.914;8.420;2023-05-17T10:20:11;5.37;;;2.20;;
15708;SDS011;7954;51.914;8.420;2023-05-17T10:22:41;5.87;;;2.10;;
15708;SDS011;7954;51.914;8.420;2023-05-17T10:25:09;4.03;;;1.83;;
15708;SDS011;7954;51.914;8.420;2023-05-17T10:27:39;3.60;;;2.00;;
15708;SDS011;7954;51.914;8.420;2023-05-17T10:30:07;3.40;;;2.00;;
15708;SDS011;7954;51.914;8.420;2023-05-17T10:32:38;3.80;;;1.90;;
15708;SDS011;7954;51.914;8.420;2023-05-17T10:35:06;4.30;;;1.93;;
15708;SDS011;7954;51.914;8.420;2023-05-17T10:37:51;4.60;;;2.10;;
15708;SDS011;7954;51.914;8.420;2023-05-17T10:40:19;4.00;;;1.93;;
15708;SDS011;7954;51.914;8.420;2023-05-17T10:42:51;3.93;;;2.10;;
15708;SDS011;7954;51.914;8.420;2023-05-17T10:45:20;5.47;;;2.37;;
15708;SDS011;7954;51.914;8.420;2023-05-17T10:47:50;5.33;;;2.07;;
15708;SDS011;7954;51.914;8.420;2023-05-17T10:50:22;3.63;;;1.93;;
15708;SDS011;7954;51.914;8.420;2023-05-17T10:52:52;4.80;;;1.80;;
15708;SDS011;7954;51.914;8.420;2023-05-17T10:55:22;5.17;;;1.90;;
15708;SDS011;7954;51.914;8.420;2023-05-17T10:58:11;5.60;;;2.10;;
15708;SDS011;7954;51.914;8.420;2023-05-17T11:00:44;5.60;;;2.33;;
15708;SDS011;7954;51.914;8.420;2023-05-17T11:03:14;4.23;;;2.20;;
15708;SDS011;7954;51.914;8.420;2023-05-17T11:05:44;3.20;;;2.10;;
15708;SDS011;7954;51.914;8.420;2023-05-17T11:09:06;4.87;;;2.13;;
15708;SDS011;7954;51.914;8.420;2023-05-17T11:11:35;5.87;;;2.40;;
15708;SDS011;7954;51.914;8.420;2023-05-17T11:14:07;4.30;;;2.10;;
15708;SDS011;7954;51.914;8.420;2023-05-17T11:16:37;5.13;;;2.57;;
15708;SDS011;7954;51.914;8.420;2023-05-17T11:19:05;5.03;;;2.03;;
15708;SDS011;7954;51.914;8.420;2023-05-17T11:21:34;4.60;;;2.03;;
15708;SDS011;7954;51.914;8.420;2023-05-17T11:24:02;6.37;;;2.30;;
15708;SDS011;7954;51.914;8.420;2023-05-17T11:26:32;5.53;;;2.27;;
15708;SDS011;7954;51.914;8.420;2023-05-17T11:29:03;6.17;;;2.30;;
15708;SDS011;7954;51.914;8.420;2023-05-17T11:31:36;5.13;;;2.60;;
15708;SDS011;7954;51.914;8.420;2023-05-17T11:34:08;6.60;;;2.30;;
15708;SDS011;7954;51.914;8.420;2023-05-17T11:36:47;4.87;;;2.47;;
15708;SDS011;7954;51.914;8.420;2023-05-17T11:39:18;5.27;;;2.27;;
15708;SDS011;7954;51.914;8.420;2023-05-17T11:41:48;7.63;;;2.50;;
15708;SDS011;7954;51.914;8.420;2023-05-17T11:44:22;8.83;;;2.57;;
15708;SDS011;7954;51.914;8.420;2023-05-17T11:46:52;5.23;;;2.10;;
15708;SDS011;7954;51.914;8.420;2023-05-17T11:49:27;3.80;;;2.23;;
15708;SDS011;7954;51.914;8.420;2023-05-17T11:52:02;6.43;;;2.87;;
15708;SDS011;7954;51.914;8.420;2023-05-17T11:54:31;5.20;;;2.30;;
15708;SDS011;7954;51.914;8.420;2023-05-17T11:57:00;5.27;;;2.53;;
15708;SDS011;7954;51.914;8.420;2023-05-17T11:59:33;3.70;;;2.23;;
15708;SDS011;7954;51.914;8.420;2023-05-17T12:02:03;5.63;;;2.43;;
15708;SDS011;7954;51.914;8.420;2023-05-17T12:04:33;6.03;;;3.10;;
15708;SDS011;7954;51.914;8.420;2023-05-17T12:07:03;4.90;;;2.00;;
15708;SDS011;7954;51.914;8.420;2023-05-17T12:09:31;6.93;;;2.53;;
15708;SDS011;7954;51.914;8.420;2023-05-17T12:12:01;3.23;;;2.30;;
15708;SDS011;7954;51.914;8.420;2023-05-17T12:14:31;5.53;;;2.57;;
15708;SDS011;7954;51.914;8.420;2023-05-17T12:16:59;5.33;;;2.73;;
15708;SDS011;7954;51.914;8.420;2023-05-17T12:19:29;3.97;;;2.20;;
15708;SDS011;7954;51.914;8.420;2023-05-17T12:22:05;4.97;;;2.50;;
15708;SDS011;7954;51.914;8.420;2023-05-17T12:24:37;5.30;;;2.57;;
15708;SDS011;7954;51.914;8.420;2023-05-17T12:27:06;6.57;;;3.00;;
15708;SDS011;7954;51.914;8.420;2023-05-17T12:29:35;4.90;;;2.50;;
15708;SDS011;7954;51.914;8.420;2023-05-17T12:32:04;6.37;;;2.73;;
15708;SDS011;7954;51.914;8.420;2023-05-17T12:34:34;6.50;;;2.80;;
15708;SDS011;7954;51.914;8.420;2023-05-17T12:37:02;5.37;;;2.40;;
15708;SDS011;7954;51.914;8.420;2023-05-17T12:39:35;5.40;;;2.53;;
15708;SDS011;7954;51.914;8.420;2023-05-17T12:42:04;6.97;;;2.50;;
15708;SDS011;7954;51.914;8.420;2023-05-17T12:44:33;5.17;;;2.67;;
15708;SDS011;7954;51.914;8.420;2023-05-17T12:47:03;5.67;;;2.60;;
15708;SDS011;7954;51.914;8.420;2023-05-17T12:49:36;5.97;;;2.40;;
15708;SDS011;7954;51.914;8.420;2023-05-17T12:52:04;6.00;;;3.07;;
15708;SDS011;7954;51.914;8.420;2023-05-17T12:54:33;5.10;;;2.20;;
15708;SDS011;7954;51.914;8.420;2023-05-17T12:57:11;5.13;;;2.40;;
15708;SDS011;7954;51.914;8.420;2023-05-17T12:59:45;5.07;;;2.67;;
15708;SDS011;7954;51.914;8.420;2023-05-17T13:02:16;5.17;;;2.47;;
15708;SDS011;7954;51.914;8.420;2023-05-17T13:04:46;3.17;;;2.20;;
15708;SDS011;7954;51.914;8.420;2023-05-17T13:07:20;10.67;;;2.70;;
15708;SDS011;7954;51.914;8.420;2023-05-17T13:09:50;3.83;;;2.43;;
15708;SDS011;7954;51.914;8.420;2023-05-17T13:12:19;4.40;;;2.33;;
15708;SDS011;7954;51.914;8.420;2023-05-17T13:14:49;5.50;;;2.60;;
15708;SDS011;7954;51.914;8.420;2023-05-17T13:17:24;5.50;;;2.50;;
15708;SDS011;7954;51.914;8.420;2023-05-17T13:19:53;7.10;;;3.08;;
15708;SDS011;7954;51.914;8.420;2023-05-17T13:22:23;6.00;;;2.80;;
15708;SDS011;7954;51.914;8.420;2023-05-17T13:24:52;4.28;;;2.53;;
15708;SDS011;7954;51.914;8.420;2023-05-17T13:27:21;5.40;;;2.40;;
15708;SDS011;7954;51.914;8.420;2023-05-17T13:29:49;4.25;;;2.30;;
15708;SDS011;7954;51.914;8.420;2023-05-17T13:32:16;6.25;;;2.78;;
15708;SDS011;7954;51.914;8.420;2023-05-17T13:34:46;5.32;;;2.78;;
15708;SDS011;7954;51.914;8.420;2023-05-17T13:37:14;6.70;;;3.30;;
15708;SDS011;7954;51.914;8.420;2023-05-17T13:39:42;5.50;;;2.57;;
15708;SDS011;7954;51.914;8.420;2023-05-17T13:42:10;3.47;;;2.13;;
15708;SDS011;7954;51.914;8.420;2023-05-17T13:44:39;6.30;;;2.70;;
15708;SDS011;7954;51.914;8.420;2023-05-17T13:47:07;6.43;;;2.60;;
15708;SDS011;7954;51.914;8.420;2023-05-17T13:49:35;6.47;;;2.63;;
15708;SDS011;7954;51.914;8.420;2023-05-17T13:52:06;4.23;;;2.70;;
15708;SDS011;7954;51.914;8.420;2023-05-17T13:54:34;5.13;;;2.53;;
15708;SDS011;7954;51.914;8.420;2023-05-17T13:57:03;7.40;;;2.80;;
15708;SDS011;7954;51.914;8.420;2023-05-17T13:59:32;3.97;;;2.70;;
15708;SDS011;7954;51.914;8.420;2023-05-17T14:02:00;5.10;;;2.70;;
15708;SDS011;7954;51.914;8.420;2023-05-17T14:04:29;3.50;;;2.13;;
15708;SDS011;7954;51.914;8.420;2023-05-17T14:06:57;4.57;;;2.60;;
15708;SDS011;7954;51.914;8.420;2023-05-17T14:09:27;6.57;;;2.50;;
15708;SDS011;7954;51.914;8.420;2023-05-17T14:11:59;5.72;;;2.78;;
15708;SDS011;7954;51.914;8.420;2023-05-17T14:14:28;5.15;;;2.78;;
15708;SDS011;7954;51.914;8.420;2023-05-17T14:16:56;3.85;;;2.40;;
15708;SDS011;7954;51.914;8.420;2023-05-17T14:19:24;5.60;;;2.70;;
15708;SDS011;7954;51.914;8.420;2023-05-17T14:21:52;5.35;;;2.63;;
15708;SDS011;7954;51.914;8.420;2023-05-17T14:24:20;5.13;;;2.70;;
15708;SDS011;7954;51.914;8.420;2023-05-17T14:26:49;4.07;;;2.45;;
15708;SDS011;7954;51.914;8.420;2023-05-17T14:29:17;5.47;;;2.20;;
15708;SDS011;7954;51.914;8.420;2023-05-17T14:31:45;5.13;;;2.50;;
15708;SDS011;7954;51.914;8.420;2023-05-17T14:34:13;3.78;;;2.58;;
15708;SDS011;7954;51.914;8.420;2023-05-17T14:36:41;4.57;;;2.78;;
15708;SDS011;7954;51.914;8.420;2023-05-17T14:39:09;5.43;;;2.75;;
15708;SDS011;7954;51.914;8.420;2023-05-17T14:41:37;4.18;;;3.05;;
15708;SDS011;7954;51.914;8.420;2023-05-17T14:44:10;5.38;;;3.00;;
15708;SDS011;7954;51.914;8.420;2023-05-17T14:46:39;4.22;;;2.63;;
15708;SDS011;7954;51.914;8.420;2023-05-17T14:49:06;3.38;;;2.45;;
15708;SDS011;7954;51.914;8.420;2023-05-17T14:51:34;3.63;;;2.70;;
15708;SDS011;7954;51.914;8.420;2023-05-17T14:54:03;3.17;;;2.25;;
15708;SDS011;7954;51.914;8.420;2023-05-17T14:56:31;5.30;;;2.45;;
15708;SDS011;7954;51.914;8.420;2023-05-17T14:58:59;3.45;;;2.47;;
15708;SDS011;7954;51.914;8.420;2023-05-17T15:01:28;3.70;;;2.63;;
15708;SDS011;7954;51.914;8.420;2023-05-17T15:03:55;5.70;;;2.85;;
15708;SDS011;7954;51.914;8.420;2023-05-17T15:06:23;3.92;;;2.75;;
15708;SDS011;7954;51.914;8.420;2023-05-17T15:08:51;3.78;;;2.88;;
15708;SDS011;7954;51.914;8.420;2023-05-17T15:11:20;5.00;;;2.90;;
15708;SDS011;7954;51.914;8.420;2023-05-17T15:13:49;4.22;;;2.85;;
15708;SDS011;7954;51.914;8.420;2023-05-17T15:16:16;7.22;;;4.07;;
15708;SDS011;7954;51.914;8.420;2023-05-17T15:18:46;6.05;;;4.38;;